メインページ
METAR-TAF:

METAR-TAF

空港 :

ロンドン・ヒースロー空港, イングランド

緯度: 51-29N, 経度: 000-27W, 海抜: 24m

現時点の気象観測

当レポートは35分前の23:20(UTC)に作成
の風 15kt
気温 2°C
湿度 75%
気圧 1025 hPa
視程10km以上
高度2500ftの雲は散在している

METAR: EGLL 242320Z AUTO 08015KT 9999 SCT025 02/M02 Q1025

時間: 23:55 (23:55 UTC)

予報

当レポートは1時間2分前の22:53(UTC)に作成
予報は25日の 00時(UTC)から 26日の 06時(UTC)まで有効
の風 12kt
視程10km以上
高度2500ftの雲はほとんどない
確率 30% :
26日の 00時(UTC)から 26日の 06時(UTC)まで一時的に
視程: 2000m
高度1000ftの千切れ雲あり
弱いにわか雪

TAF: EGLL 242253Z 2500/2606 08012KT 9999 FEW025 PROB30 TEMPO 2600/2606 2000 -SHSN BKN010

4,000以上の空港の気象観測と天気予報(METAR報とTAF報)

利用可能な観測所は地図上に黄色い丸と赤い丸で示す。

丸の上にカーソルを重ねると観測所名を参照できる。

次にクリックすると気象観測と天気予報を参照できる。

マップの切り替え:黒色「×」印の緑ボタンをクリックして拡大、「-」印の緑ボタンをクリックして縮小、緑色の三角印をクリックして隣りの地図に切り替え


METAR-TAF: